map of TTD home
TTD - Airport
Location
City:  Portland, Oregon, United States
Name:Portland-Troutdale Airport
ICAO:KTTD
IATA:TTD
FAA LID:TTD

Details
Type:Airport (Airfield)
Use:Public/Civil
Latitude:4532'58"N (45.549361)
Longitude:12224'04"W (-122.401249)
Datum:WGS 1984
Elevation:38 ft (12 m)
Variation:15.25E (WMM2015 magnetic declination)
-0.13 annual change
Runways:1
Longest:5399 × 150 ft (1646 × 45.5 m), paved

Time
Time Zone:UTC-8 (DST-7)
Local Time:

Weather
METAR:KTTD 131553Z 08017G23KT 10SM CLR 03/M04 A3040 RMK AO2 SLP292 T00281039
TAF:KTTD 131139Z 1312/1412 08015G25KT P6SM SCT250
FM132000 09020G30KT P6SM SCT250
FM140200 09024G34KT P6SM SCT250

Related Locations
Nearby:
Farthest:FTU: 10898 mi / 17539 km
Tolagnaro [Maurillac Airport (Fort Dauphin Airport)], MG

Find:

   beyond  
but within

Other Information
Maps:
NOTAMs:
Links:
Sources:

  
flag of United States
flag of Oregon
flag of Portland
  

Airport Diagram

Airport diagram for TTD

Airport diagram PDF

Sectional Chart

Flight Planning
at skyvector.com

Satellite Image

Google Maps Satellite view

 

Copyright © 2004-2017 Karl L. Swartz. All rights reserved.
The Great Circle Mapper name and logo are trademarks of the Great Circle Mapper.
All other trademarks mentioned herein belong to their respective owners.
Please see credits for attibutions and further copyright information.

  Follow gcmap on Facebook Follow gcmap on Twitter Follow gcmap on Google+ GCmap on LinkedIn

hCard Microformat

Geo Microformat